Time;durP1;ratioP1;P1;durP2;ratioP2;P2;SDS_P1;SDS_P2;PMS_P1;PMS_P2;Temp;Humidity;BMP_temperature;BMP_pressure;BME280_temperature;BME280_humidity;BME280_pressure;Samples;Min_cycle;Max_cycle;Signal;HPM_P1;HPM_P2
2021/01/02 21:30:08;;;;;;;66.97;35.97;;;6.00;99.90;;;;;;4951599;23;20304;-80
2021/01/02 21:32:34;;;;;;;66.57;37.30;;;6.10;99.90;;;;;;4931216;23;20297;-92
2021/01/02 21:34:59;;;;;;;67.77;37.20;;;6.10;99.90;;;;;;4907839;29;20627;-91
2021/01/02 21:37:30;;;;;;;70.70;40.23;;;6.20;99.90;;;;;;4928675;29;20182;-87
2021/01/02 21:39:57;;;;;;;74.27;39.83;;;6.20;99.90;;;;;;4926813;29;20238;-86
2021/01/02 21:42:24;;;;;;;62.57;38.50;;;6.20;99.90;;;;;;4935726;29;20178;-81
2021/01/02 21:44:51;;;;;;;68.60;38.40;;;6.20;99.90;;;;;;4939233;29;20162;-85
2021/01/02 21:47:18;;;;;;;66.83;38.23;;;6.20;99.90;;;;;;4942026;29;20188;-83
2021/01/02 21:49:54;;;;;;;63.43;37.87;;;6.10;99.90;;;;;;4940219;29;20291;-87
2021/01/02 21:52:20;;;;;;;66.13;36.57;;;6.00;99.90;;;;;;4924028;29;20205;-85
2021/01/02 21:54:48;;;;;;;62.63;36.70;;;6.00;99.90;;;;;;4941361;29;20181;-87
2021/01/02 21:57:17;;;;;;;64.43;35.97;;;6.20;99.90;;;;;;4930994;29;20197;-83
2021/01/02 21:59:45;;;;;;;68.00;40.30;;;6.20;99.90;;;;;;4936894;29;20166;-89
2021/01/02 22:02:18;;;;;;;64.03;38.57;;;6.30;99.90;;;;;;4928591;29;20229;-80
2021/01/02 22:04:50;;;;;;;62.67;37.37;;;6.30;99.90;;;;;;4939483;29;20266;-82
2021/01/02 22:07:18;;;;;;;51.73;30.33;;;6.10;99.90;;;;;;4923925;29;20182;-85
2021/01/02 22:09:47;;;;;;;56.63;30.03;;;5.70;99.90;;;;;;4928907;29;20170;-89
2021/01/02 22:12:18;;;;;;;61.03;33.03;;;5.50;99.90;;;;;;4932097;29;20205;-89
2021/01/02 22:15:04;;;;;;;53.40;30.67;;;5.50;99.90;;;;;;4942704;29;20206;-87
2021/01/02 22:17:31;;;;;;;57.00;32.00;;;5.30;99.90;;;;;;4939833;29;20197;-85
2021/01/02 22:20:21;;;;;;;55.27;31.63;;;5.10;99.90;;;;;;4929213;29;20193;-92
2021/01/02 22:23:16;;;;;;;56.40;32.07;;;5.00;99.90;;;;;;4931583;29;20173;-90
2021/01/02 22:25:41;;;;;;;68.37;34.67;;;5.30;99.90;;;;;;4934575;29;20185;-90
2021/01/02 22:28:08;;;;;;;59.40;36.23;;;5.30;99.90;;;;;;4921766;29;20182;-87
2021/01/02 22:30:34;;;;;;;63.93;34.93;;;5.40;99.90;;;;;;4919442;29;20174;-91
2021/01/02 22:32:59;;;;;;;57.83;33.90;;;5.60;99.90;;;;;;4905718;29;20210;-81
2021/01/02 22:35:25;;;;;;;56.23;32.77;;;5.60;99.90;;;;;;4900981;29;20611;-91
2021/01/02 22:38:06;;;;;;;65.13;33.70;;;5.60;99.90;;;;;;4906286;29;20174;-89
2021/01/02 22:40:32;;;;;;;57.73;32.40;;;5.60;99.90;;;;;;4903308;29;20170;-84
2021/01/02 22:42:58;;;;;;;52.47;31.53;;;5.80;99.90;;;;;;4899174;29;20191;-82
2021/01/02 22:45:25;;;;;;;59.13;32.27;;;5.50;99.90;;;;;;4901251;29;20186;-83
2021/01/02 22:47:52;;;;;;;57.80;31.80;;;5.50;99.90;;;;;;4900119;29;20202;-92
2021/01/02 22:50:19;;;;;;;55.60;32.53;;;5.50;99.90;;;;;;4910719;29;20237;-82
2021/01/02 22:52:47;;;;;;;53.77;31.80;;;5.60;99.90;;;;;;4917776;29;20205;-82
2021/01/02 22:55:14;;;;;;;53.23;31.70;;;5.50;99.90;;;;;;4919949;29;20262;-85
2021/01/02 22:57:41;;;;;;;62.13;31.77;;;5.40;99.90;;;;;;4900274;29;20643;-83
2021/01/02 23:00:39;;;;;;;55.63;30.17;;;5.50;99.90;;;;;;4918804;29;20174;-82
2021/01/02 23:03:06;;;;;;;55.57;31.80;;;5.50;99.90;;;;;;4909545;29;20182;-84
2021/01/02 23:05:31;;;;;;;56.60;31.83;;;5.50;99.90;;;;;;4911423;29;20175;-87
2021/01/02 23:07:57;;;;;;;54.20;32.40;;;5.70;99.90;;;;;;4906891;29;20186;-90
2021/01/02 23:10:25;;;;;;;57.20;33.73;;;5.60;99.90;;;;;;4903141;29;20182;-90
2021/01/02 23:12:52;;;;;;;55.83;31.97;;;5.60;99.90;;;;;;4899824;29;20250;-85
2021/01/02 23:15:20;;;;;;;54.17;31.07;;;5.60;99.90;;;;;;4901639;29;20166;-90
2021/01/02 23:17:46;;;;;;;48.97;30.83;;;5.50;99.90;;;;;;4897882;29;20190;-84
2021/01/02 23:20:13;;;;;;;44.57;28.90;;;5.50;99.90;;;;;;4911857;29;20186;-86
2021/01/02 23:22:47;;;;;;;46.20;28.90;;;5.50;99.90;;;;;;4901284;29;20588;-86
2021/01/02 23:25:25;;;;;;;45.47;28.30;;;5.60;99.90;;;;;;4901309;29;20214;-87
2021/01/02 23:27:51;;;;;;;44.37;28.63;;;5.60;99.90;;;;;;4903734;29;20189;-86
2021/01/02 23:30:18;;;;;;;44.00;27.60;;;5.50;99.90;;;;;;4908508;29;20529;-88
2021/01/02 23:32:52;;;;;;;41.83;25.97;;;5.50;99.90;;;;;;4904376;29;20244;-88
2021/01/02 23:35:19;;;;;;;44.97;28.50;;;5.60;99.90;;;;;;4899612;29;20175;-85
2021/01/02 23:37:44;;;;;;;44.57;27.47;;;5.80;99.90;;;;;;4900343;29;20649;-84
2021/01/02 23:40:13;;;;;;;47.43;28.67;;;6.00;99.90;;;;;;4899949;29;20174;-88
2021/01/02 23:42:39;;;;;;;43.97;26.37;;;6.00;99.90;;;;;;4905771;29;20162;-86
2021/01/02 23:45:07;;;;;;;42.57;26.87;;;6.10;99.90;;;;;;4915810;29;20377;-84
2021/01/02 23:47:32;;;;;;;40.30;26.37;;;6.30;99.90;;;;;;4914055;29;20209;-84
2021/01/02 23:49:58;;;;;;;45.30;27.37;;;6.30;99.90;;;;;;4913699;29;20187;-85
2021/01/02 23:52:25;;;;;;;43.07;26.40;;;6.30;99.90;;;;;;4912198;29;20214;-83
2021/01/02 23:54:50;;;;;;;43.97;27.63;;;6.30;99.90;;;;;;4912985;29;20237;-84
2021/01/02 23:57:16;;;;;;;45.50;27.67;;;6.50;99.90;;;;;;4912518;29;20170;-82
2021/01/02 23:59:42;;;;;;;41.90;27.00;;;6.50;99.90;;;;;;4901898;29;20174;-86
